Terminal Aerodrome Forecast
Issued by NWS

Home | Current Version | Previous Version | Text Only | Print | Product List | Glossary On
Versions: 1 2 3 4 5 6 7 8 9 10 11 12 13 14
000
FTAK31 PANC 301902 AAA
TAFAHO
TAF AMD
PAHO 301902Z 3019/3118 14010G20KT P6SM FEW045 SCT060
     FM302100 21007KT P6SM VCSH SCT070 BKN120
     FM311000 VRB06KT P6SM BKN100=

USA.gov is the U.S. government's official web portal to all federal, state and local government web resources and services.